createdAt,value
2019-03-26T00:00:28.410Z,93.20
2019-03-26T00:02:57.588Z,93.30
2019-03-26T00:05:24.658Z,93.30
2019-03-26T00:07:52.241Z,93.30
2019-03-26T00:10:19.341Z,93.40
2019-03-26T00:12:46.344Z,93.50
2019-03-26T00:15:13.416Z,93.70
2019-03-26T00:17:40.464Z,94.00
2019-03-26T00:20:07.445Z,93.90
2019-03-26T00:22:34.520Z,94.00
2019-03-26T00:25:01.555Z,93.90
2019-03-26T00:27:28.530Z,93.70
2019-03-26T00:29:55.549Z,93.20
2019-03-26T00:32:23.717Z,93.00
2019-03-26T00:34:50.973Z,92.90
2019-03-26T00:37:17.993Z,92.80
2019-03-26T00:39:45.122Z,92.70
2019-03-26T00:42:12.182Z,92.80
2019-03-26T00:44:39.253Z,93.40
2019-03-26T00:47:06.348Z,94.20
2019-03-26T00:49:33.449Z,94.20
2019-03-26T00:52:00.521Z,94.40
2019-03-26T00:54:27.533Z,94.90
2019-03-26T00:56:54.685Z,94.80
2019-03-26T00:59:21.693Z,94.80
2019-03-26T01:01:48.801Z,94.80
2019-03-26T01:04:16.093Z,95.30
2019-03-26T01:06:43.285Z,95.30
2019-03-26T01:09:10.539Z,95.00
2019-03-26T01:11:37.605Z,94.80
2019-03-26T01:14:04.663Z,94.80
2019-03-26T01:16:31.790Z,95.00
2019-03-26T01:18:58.849Z,95.20
2019-03-26T01:21:25.849Z,95.40
2019-03-26T01:23:55.363Z,95.10
2019-03-26T01:26:22.382Z,95.40
2019-03-26T01:28:49.533Z,95.10
2019-03-26T01:31:16.586Z,95.50
2019-03-26T01:33:43.594Z,95.40
2019-03-26T01:36:10.656Z,95.30
2019-03-26T01:38:37.676Z,96.20
2019-03-26T01:41:04.689Z,95.30
2019-03-26T01:43:31.733Z,95.60
2019-03-26T01:45:58.902Z,95.70
2019-03-26T01:48:25.893Z,96.20
2019-03-26T01:50:53.000Z,95.70
2019-03-26T01:53:20.412Z,95.60
2019-03-26T01:55:47.480Z,95.40
2019-03-26T01:58:14.489Z,95.00
2019-03-26T02:00:41.534Z,95.40
2019-03-26T02:03:08.569Z,95.40
2019-03-26T02:05:35.718Z,95.70
2019-03-26T02:08:02.791Z,96.20
2019-03-26T02:10:29.868Z,97.00
2019-03-26T02:12:58.161Z,97.30
2019-03-26T02:15:30.300Z,97.00
2019-03-26T02:17:57.888Z,97.20
2019-03-26T02:20:25.229Z,97.30
2019-03-26T02:22:52.213Z,97.30
2019-03-26T02:25:19.411Z,97.20
2019-03-26T02:27:46.377Z,97.20
2019-03-26T02:30:13.401Z,97.50
2019-03-26T02:32:40.450Z,97.50
2019-03-26T02:35:17.623Z,97.30
2019-03-26T02:37:37.538Z,97.20
2019-03-26T02:40:05.877Z,96.80
2019-03-26T02:42:32.898Z,96.70
2019-03-26T02:45:00.262Z,96.50
2019-03-26T02:47:28.405Z,96.20
2019-03-26T02:49:55.559Z,96.60
2019-03-26T02:52:25.322Z,96.50
2019-03-26T02:54:52.403Z,96.80
2019-03-26T02:57:19.383Z,96.80
2019-03-26T02:59:46.376Z,96.60
2019-03-26T03:02:13.436Z,96.40
2019-03-26T03:04:40.599Z,96.30
2019-03-26T03:07:08.555Z,96.20
2019-03-26T03:09:35.741Z,96.20
2019-03-26T03:12:02.761Z,96.40
2019-03-26T03:14:29.846Z,96.60
2019-03-26T03:16:57.689Z,96.80
2019-03-26T03:19:24.846Z,96.90
2019-03-26T03:21:51.852Z,96.90
2019-03-26T03:24:28.749Z,96.70
2019-03-26T03:26:56.969Z,97.20
2019-03-26T03:29:24.103Z,97.00
2019-03-26T03:31:51.965Z,96.60
2019-03-26T03:34:19.042Z,96.60
2019-03-26T03:36:46.031Z,96.50
2019-03-26T03:39:13.168Z,96.60
2019-03-26T03:41:40.197Z,96.60
2019-03-26T03:44:07.247Z,96.90
2019-03-26T03:46:34.374Z,96.70
2019-03-26T03:49:01.885Z,96.50
2019-03-26T03:51:29.530Z,96.40
2019-03-26T03:53:56.550Z,96.40
2019-03-26T03:56:25.462Z,96.40
2019-03-26T03:58:52.722Z,96.30
2019-03-26T04:01:19.791Z,96.60
2019-03-26T04:03:46.868Z,96.70
2019-03-26T04:06:14.022Z,96.90
2019-03-26T04:08:41.086Z,96.70
2019-03-26T04:11:08.129Z,96.80
2019-03-26T04:13:35.180Z,96.40
2019-03-26T04:16:02.160Z,96.90
2019-03-26T04:18:29.205Z,96.20
2019-03-26T04:20:56.217Z,96.30
2019-03-26T04:23:24.359Z,96.30
2019-03-26T04:25:51.413Z,96.50
2019-03-26T04:28:18.574Z,96.30
2019-03-26T04:30:45.704Z,96.30
2019-03-26T04:33:12.832Z,96.60
2019-03-26T04:35:39.917Z,96.60
2019-03-26T04:38:06.969Z,96.70
2019-03-26T04:40:33.941Z,96.70
2019-03-26T04:43:00.987Z,96.80
2019-03-26T04:45:27.987Z,97.00
2019-03-26T04:47:56.129Z,96.80
2019-03-26T04:50:23.207Z,96.70
2019-03-26T04:52:51.226Z,96.40
2019-03-26T04:55:18.305Z,96.40
2019-03-26T04:57:45.280Z,96.40
2019-03-26T05:00:13.638Z,96.50
2019-03-26T05:02:40.660Z,96.50
2019-03-26T05:05:07.710Z,96.50
2019-03-26T05:07:34.734Z,96.50
2019-03-26T05:10:05.119Z,96.50
2019-03-26T05:12:32.296Z,96.70
2019-03-26T05:14:59.285Z,96.80
2019-03-26T05:17:26.310Z,97.10
2019-03-26T05:19:53.477Z,97.00
2019-03-26T05:22:24.476Z,97.00
2019-03-26T05:24:49.334Z,97.00
2019-03-26T05:27:16.341Z,97.00
2019-03-26T05:29:43.466Z,97.00
2019-03-26T05:32:10.495Z,97.40
2019-03-26T05:34:37.547Z,97.10
2019-03-26T05:37:04.553Z,96.90
2019-03-26T05:39:32.629Z,97.00
2019-03-26T05:41:59.645Z,96.90
2019-03-26T05:44:27.693Z,97.20
2019-03-26T05:46:54.702Z,97.40
2019-03-26T05:49:21.737Z,97.50
2019-03-26T05:51:49.206Z,97.80
2019-03-26T05:54:16.269Z,97.80
2019-03-26T05:56:43.292Z,97.90
2019-03-26T05:59:10.326Z,98.10
2019-03-26T06:01:37.286Z,97.90
2019-03-26T06:04:04.298Z,98.00
2019-03-26T06:06:31.337Z,98.40
2019-03-26T06:08:58.596Z,98.40
2019-03-26T06:11:25.686Z,98.90
2019-03-26T06:13:52.706Z,98.80
2019-03-26T06:16:19.733Z,97.70
2019-03-26T06:18:46.708Z,98.00
2019-03-26T06:21:13.761Z,97.20
2019-03-26T06:23:40.809Z,97.20
2019-03-26T06:26:07.886Z,97.30
2019-03-26T06:28:34.920Z,97.30
2019-03-26T06:31:01.965Z,97.40
2019-03-26T06:33:28.961Z,97.80
2019-03-26T06:35:56.139Z,97.70
2019-03-26T06:38:23.100Z,98.00
2019-03-26T06:40:50.159Z,97.80
2019-03-26T06:43:17.177Z,97.90
2019-03-26T06:45:44.410Z,97.80
2019-03-26T06:48:11.418Z,97.50
2019-03-26T06:50:38.437Z,97.20
2019-03-26T06:53:05.458Z,96.70
2019-03-26T06:55:32.533Z,96.60
2019-03-26T06:57:59.569Z,96.50
2019-03-26T07:00:33.345Z,96.20
2019-03-26T07:03:01.669Z,96.20
2019-03-26T07:05:28.792Z,95.80
2019-03-26T07:07:55.849Z,96.10
2019-03-26T07:10:30.774Z,95.80
2019-03-26T07:12:58.285Z,95.80
2019-03-26T07:15:26.523Z,95.90
2019-03-26T07:17:53.769Z,95.50
2019-03-26T07:20:20.948Z,94.60
2019-03-26T07:22:47.984Z,94.10
2019-03-26T07:25:15.013Z,94.70
2019-03-26T07:27:42.005Z,93.90
2019-03-26T07:30:10.762Z,94.30
2019-03-26T07:32:37.817Z,93.90
2019-03-26T07:35:06.325Z,93.40
2019-03-26T07:37:44.520Z,93.10
2019-03-26T07:40:04.556Z,93.00
2019-03-26T07:42:31.646Z,92.60
2019-03-26T07:44:58.645Z,92.00
2019-03-26T07:47:25.717Z,92.10
2019-03-26T07:49:52.845Z,89.20
2019-03-26T07:52:20.918Z,88.00
2019-03-26T07:54:47.954Z,91.40
2019-03-26T07:57:15.021Z,88.20
2019-03-26T08:00:03.750Z,84.50
2019-03-26T08:02:31.989Z,90.10
2019-03-26T08:04:59.033Z,86.10
2019-03-26T08:07:26.074Z,83.60
2019-03-26T08:09:53.107Z,88.00
2019-03-26T08:12:20.160Z,81.80
2019-03-26T08:14:47.176Z,83.40
2019-03-26T08:17:16.577Z,87.60
2019-03-26T08:19:44.612Z,89.30
2019-03-26T08:22:11.681Z,82.40
2019-03-26T08:24:38.761Z,82.70
2019-03-26T08:27:08.137Z,88.60
2019-03-26T08:29:35.114Z,83.20
2019-03-26T08:32:02.142Z,83.40
2019-03-26T08:34:29.145Z,83.40
2019-03-26T08:36:56.207Z,82.50
2019-03-26T08:39:23.561Z,80.90
2019-03-26T08:41:50.774Z,80.50
2019-03-26T08:44:18.016Z,76.70
2019-03-26T08:46:46.482Z,74.70
2019-03-26T08:49:14.550Z,73.20
2019-03-26T08:51:41.603Z,75.00
2019-03-26T08:54:08.745Z,74.10
2019-03-26T08:56:35.745Z,73.10
2019-03-26T08:59:02.917Z,72.70
2019-03-26T09:01:29.918Z,72.90
2019-03-26T09:03:57.108Z,71.60
2019-03-26T09:06:24.076Z,76.40
2019-03-26T09:08:51.233Z,74.10
2019-03-26T09:11:18.205Z,78.90
2019-03-26T09:13:45.418Z,83.10
2019-03-26T09:16:12.386Z,76.80
2019-03-26T09:18:39.464Z,80.50
2019-03-26T09:21:06.436Z,77.30
2019-03-26T09:23:33.657Z,78.50
2019-03-26T09:26:00.751Z,77.00
2019-03-26T09:28:27.985Z,76.60
2019-03-26T09:30:55.752Z,80.80
2019-03-26T09:33:22.905Z,78.10
2019-03-26T09:35:49.899Z,81.50
2019-03-26T09:38:17.076Z,78.40
2019-03-26T09:40:44.141Z,78.00
2019-03-26T09:43:11.288Z,81.20
2019-03-26T09:45:38.308Z,77.10
2019-03-26T09:48:05.310Z,77.40
2019-03-26T09:50:34.123Z,77.50
2019-03-26T09:53:02.209Z,78.40
2019-03-26T09:55:29.234Z,79.40
2019-03-26T09:57:56.313Z,79.00
2019-03-26T10:00:23.360Z,77.20
2019-03-26T10:02:52.753Z,77.00
2019-03-26T10:05:19.849Z,77.30
2019-03-26T10:07:46.997Z,76.80
2019-03-26T10:10:14.461Z,79.00
2019-03-26T10:12:41.626Z,77.30
2019-03-26T10:15:09.289Z,80.70
2019-03-26T10:17:36.471Z,77.90
2019-03-26T10:20:07.467Z,78.10
2019-03-26T10:22:36.306Z,77.10
2019-03-26T10:25:05.605Z,76.00
2019-03-26T10:27:35.051Z,75.90
2019-03-26T10:30:05.785Z,75.20
2019-03-26T10:32:33.843Z,74.50
2019-03-26T10:35:00.988Z,74.80
2019-03-26T10:37:28.110Z,74.90
2019-03-26T10:39:55.211Z,78.10
2019-03-26T10:42:22.322Z,73.90
2019-03-26T10:44:49.476Z,75.50
2019-03-26T10:47:16.704Z,76.80
2019-03-26T10:49:44.481Z,73.90
2019-03-26T10:52:11.608Z,75.30
2019-03-26T10:54:38.588Z,74.70
2019-03-26T10:57:05.707Z,77.60
2019-03-26T10:59:33.641Z,76.30
2019-03-26T11:02:00.705Z,77.00
2019-03-26T11:04:27.888Z,78.00
2019-03-26T11:06:55.015Z,77.10
2019-03-26T11:09:26.834Z,75.40
2019-03-26T11:11:50.949Z,76.60
2019-03-26T11:14:18.002Z,74.80
2019-03-26T11:16:45.074Z,75.90
2019-03-26T11:19:12.346Z,75.90
2019-03-26T11:21:39.350Z,74.90
2019-03-26T11:24:06.437Z,74.80
2019-03-26T11:26:33.561Z,77.70
2019-03-26T11:29:00.729Z,74.80
2019-03-26T11:31:30.071Z,74.70
2019-03-26T11:33:56.646Z,77.60
2019-03-26T11:36:23.677Z,78.40
2019-03-26T11:38:50.848Z,75.30
2019-03-26T11:41:18.957Z,73.70
2019-03-26T11:43:46.021Z,75.30
2019-03-26T11:46:13.052Z,73.80
2019-03-26T11:48:40.217Z,72.90
2019-03-26T11:51:07.254Z,72.20
2019-03-26T11:53:34.294Z,74.30
2019-03-26T11:56:01.334Z,74.20
2019-03-26T11:58:30.844Z,74.70
2019-03-26T12:00:57.254Z,73.70
2019-03-26T12:03:24.336Z,73.90
2019-03-26T12:05:51.358Z,74.30
2019-03-26T12:08:18.400Z,72.90
2019-03-26T12:10:45.417Z,73.30
2019-03-26T12:13:12.509Z,73.00
2019-03-26T12:15:39.527Z,73.80
2019-03-26T12:18:06.617Z,72.70
2019-03-26T12:20:33.628Z,71.10
2019-03-26T12:23:00.714Z,70.20
2019-03-26T12:25:27.732Z,71.10
2019-03-26T12:27:55.591Z,70.90
2019-03-26T12:30:31.550Z,73.30
2019-03-26T12:32:58.815Z,75.40
2019-03-26T12:35:27.540Z,74.60
2019-03-26T12:37:54.639Z,73.20
2019-03-26T12:40:21.653Z,73.40
2019-03-26T12:42:49.053Z,73.50
2019-03-26T12:45:16.117Z,73.40
2019-03-26T12:47:43.309Z,72.90
2019-03-26T12:50:10.945Z,73.70
2019-03-26T12:52:38.090Z,74.00
2019-03-26T12:55:05.350Z,75.70
2019-03-26T12:57:32.510Z,76.80
2019-03-26T12:59:59.721Z,73.60
2019-03-26T13:02:26.902Z,74.00
2019-03-26T13:04:53.963Z,75.90
2019-03-26T13:07:21.073Z,74.20
2019-03-26T13:09:49.093Z,74.50
2019-03-26T13:12:16.347Z,74.40
2019-03-26T13:14:43.497Z,72.90
2019-03-26T13:17:10.646Z,75.00
2019-03-26T13:19:37.805Z,72.70
2019-03-26T13:22:05.046Z,74.80
2019-03-26T13:24:32.186Z,74.00
2019-03-26T13:26:59.430Z,73.90
2019-03-26T13:29:26.677Z,73.00
2019-03-26T13:31:53.824Z,74.00
2019-03-26T13:34:21.277Z,72.50
2019-03-26T13:36:48.405Z,70.50
2019-03-26T13:39:16.321Z,72.30
2019-03-26T13:41:43.394Z,74.20
2019-03-26T13:44:10.670Z,71.70
2019-03-26T13:46:37.907Z,73.40
2019-03-26T13:49:05.013Z,72.60
2019-03-26T13:51:32.149Z,69.90
2019-03-26T13:53:59.368Z,72.50
2019-03-26T13:56:26.489Z,72.20
2019-03-26T13:58:53.647Z,72.70
2019-03-26T14:01:20.744Z,72.80
2019-03-26T14:03:47.876Z,71.50
2019-03-26T14:06:15.013Z,72.20
2019-03-26T14:08:42.207Z,73.50
2019-03-26T14:11:09.329Z,72.60
2019-03-26T14:13:36.382Z,72.50
2019-03-26T14:16:03.401Z,74.00
2019-03-26T14:18:30.489Z,73.40
2019-03-26T14:20:57.523Z,73.40
2019-03-26T14:23:24.609Z,73.30
2019-03-26T14:25:51.652Z,73.20
2019-03-26T14:28:18.790Z,74.00
2019-03-26T14:30:45.817Z,74.50
2019-03-26T14:33:13.102Z,74.20
2019-03-26T14:35:40.125Z,76.70
2019-03-26T14:38:07.406Z,73.30
2019-03-26T14:40:34.424Z,74.30
2019-03-26T14:43:04.112Z,75.30
2019-03-26T14:45:31.221Z,76.70
2019-03-26T14:47:59.234Z,75.40
2019-03-26T14:50:26.263Z,77.30
2019-03-26T14:52:53.406Z,75.80
2019-03-26T14:55:20.457Z,78.30
2019-03-26T14:57:47.594Z,75.80
2019-03-26T15:00:14.753Z,76.20
2019-03-26T15:02:42.019Z,76.40
2019-03-26T15:05:09.293Z,76.70
2019-03-26T15:07:36.542Z,77.90
2019-03-26T15:10:05.439Z,77.30
2019-03-26T15:12:32.694Z,79.20
2019-03-26T15:14:59.883Z,78.00
2019-03-26T15:17:27.039Z,76.90
2019-03-26T15:19:55.370Z,78.80
2019-03-26T15:22:22.626Z,78.50
2019-03-26T15:24:49.765Z,77.50
2019-03-26T15:27:16.885Z,77.30
2019-03-26T15:29:44.077Z,80.00
2019-03-26T15:32:11.197Z,79.90
2019-03-26T15:34:38.248Z,78.40
2019-03-26T15:37:05.301Z,79.70
2019-03-26T15:39:32.376Z,79.40
2019-03-26T15:41:59.409Z,78.40
2019-03-26T15:44:26.506Z,79.10
2019-03-26T15:46:53.744Z,79.90
2019-03-26T15:49:20.809Z,79.60
2019-03-26T15:51:47.853Z,80.00
2019-03-26T15:54:14.901Z,79.90
2019-03-26T15:56:41.966Z,80.30
2019-03-26T15:59:08.947Z,80.10
2019-03-26T16:01:37.986Z,80.90
2019-03-26T16:04:05.079Z,81.90
2019-03-26T16:06:32.130Z,81.10
2019-03-26T16:08:59.546Z,81.80
2019-03-26T16:11:35.805Z,81.10
2019-03-26T16:13:56.395Z,80.60
2019-03-26T16:16:23.424Z,82.10
2019-03-26T16:18:50.411Z,81.30
2019-03-26T16:21:17.433Z,81.00
2019-03-26T16:23:44.526Z,81.20
2019-03-26T16:26:11.601Z,81.10
2019-03-26T16:28:38.656Z,81.70
2019-03-26T16:31:05.715Z,82.20
2019-03-26T16:33:32.786Z,81.70
2019-03-26T16:35:59.833Z,83.70
2019-03-26T16:38:26.889Z,82.00
2019-03-26T16:40:54.030Z,83.00
2019-03-26T16:43:21.121Z,82.00
2019-03-26T16:45:48.178Z,82.10
2019-03-26T16:48:15.284Z,82.50
2019-03-26T16:50:42.381Z,83.50
2019-03-26T16:53:09.464Z,81.70
2019-03-26T16:55:36.529Z,81.90
2019-03-26T16:58:03.583Z,82.80
2019-03-26T17:00:31.614Z,82.50
2019-03-26T17:02:59.480Z,83.10
2019-03-26T17:05:26.645Z,83.70
2019-03-26T17:07:54.968Z,83.90
2019-03-26T17:10:22.062Z,84.90
2019-03-26T17:12:49.171Z,84.50
2019-03-26T17:15:16.246Z,84.50
2019-03-26T17:17:43.309Z,85.80
2019-03-26T17:20:11.148Z,85.10
2019-03-26T17:22:38.118Z,86.20
2019-03-26T17:25:07.058Z,85.40
2019-03-26T17:27:35.361Z,85.70
2019-03-26T17:30:03.924Z,85.70
2019-03-26T17:32:31.085Z,85.90
2019-03-26T17:34:58.133Z,86.70
2019-03-26T17:37:25.157Z,86.90
2019-03-26T17:39:52.132Z,87.60
2019-03-26T17:42:19.150Z,86.60
2019-03-26T17:44:47.725Z,87.70
2019-03-26T17:47:14.869Z,89.10
2019-03-26T17:49:41.945Z,87.80
2019-03-26T17:52:09.002Z,87.90
2019-03-26T17:54:36.060Z,88.10
2019-03-26T17:57:03.040Z,88.30
2019-03-26T17:59:30.088Z,88.00
2019-03-26T18:01:57.185Z,87.80
2019-03-26T18:04:24.363Z,88.00
2019-03-26T18:06:51.470Z,88.10
2019-03-26T18:09:18.651Z,88.80
2019-03-26T18:11:45.699Z,88.80
2019-03-26T18:14:12.767Z,89.30
2019-03-26T18:16:39.745Z,89.40
2019-03-26T18:19:06.781Z,89.40
2019-03-26T18:21:33.818Z,89.20
2019-03-26T18:24:00.985Z,89.70
2019-03-26T18:26:28.029Z,90.30
2019-03-26T18:28:57.502Z,90.10
2019-03-26T18:31:24.521Z,89.70
2019-03-26T18:33:51.550Z,90.00
2019-03-26T18:36:18.603Z,90.00
2019-03-26T18:38:45.610Z,89.70
2019-03-26T18:41:12.829Z,89.80
2019-03-26T18:43:39.809Z,90.00
2019-03-26T18:46:06.959Z,90.20
2019-03-26T18:48:33.986Z,90.20
2019-03-26T18:51:00.991Z,90.10
2019-03-26T18:53:28.018Z,90.30
2019-03-26T18:55:55.073Z,90.30
2019-03-26T18:58:22.121Z,90.10
2019-03-26T19:00:49.226Z,90.20
2019-03-26T19:03:16.186Z,90.10
2019-03-26T19:05:43.301Z,90.00
2019-03-26T19:08:11.169Z,89.30
2019-03-26T19:10:38.333Z,89.40
2019-03-26T19:13:18.441Z,90.00
2019-03-26T19:15:34.420Z,90.20
2019-03-26T19:18:02.225Z,89.70
2019-03-26T19:20:29.301Z,90.20
2019-03-26T19:22:56.314Z,90.10
2019-03-26T19:25:23.411Z,90.10
2019-03-26T19:27:51.466Z,90.20
2019-03-26T19:30:18.697Z,89.50
2019-03-26T19:32:45.665Z,90.20
2019-03-26T19:35:13.942Z,90.00
2019-03-26T19:37:40.956Z,89.70
2019-03-26T19:40:08.188Z,89.90
2019-03-26T19:42:35.261Z,90.00
2019-03-26T19:45:04.132Z,89.90
2019-03-26T19:47:33.117Z,90.00
2019-03-26T19:50:00.338Z,90.00
2019-03-26T19:52:47.436Z,90.10
2019-03-26T19:55:16.982Z,90.50
2019-03-26T19:57:44.059Z,90.00
2019-03-26T20:00:13.416Z,89.90
2019-03-26T20:02:40.586Z,89.90
2019-03-26T20:05:07.872Z,89.80
2019-03-26T20:07:35.458Z,90.40
2019-03-26T20:10:05.765Z,90.10
2019-03-26T20:12:32.787Z,89.80
2019-03-26T20:14:59.780Z,90.00
2019-03-26T20:17:27.203Z,90.10
2019-03-26T20:19:54.181Z,90.00
2019-03-26T20:22:22.186Z,90.00
2019-03-26T20:24:50.368Z,90.10
2019-03-26T20:27:17.649Z,90.30
2019-03-26T20:29:44.758Z,90.00
2019-03-26T20:32:11.822Z,90.40
2019-03-26T20:34:38.869Z,90.10
2019-03-26T20:37:05.849Z,90.20
2019-03-26T20:39:32.887Z,90.40
2019-03-26T20:42:00.098Z,90.20
2019-03-26T20:44:27.197Z,90.50
2019-03-26T20:46:54.337Z,90.30
2019-03-26T20:49:21.436Z,89.60
2019-03-26T20:51:48.552Z,90.60
2019-03-26T20:54:15.613Z,89.10
2019-03-26T20:56:42.613Z,90.00
2019-03-26T20:59:10.227Z,90.30
2019-03-26T21:01:37.379Z,89.80
2019-03-26T21:04:04.486Z,90.10
2019-03-26T21:06:31.567Z,90.30
2019-03-26T21:08:58.642Z,90.00
2019-03-26T21:11:25.664Z,90.20
2019-03-26T21:13:52.774Z,89.80
2019-03-26T21:16:19.781Z,89.90
2019-03-26T21:18:46.801Z,89.10
2019-03-26T21:21:13.837Z,89.70
2019-03-26T21:23:40.905Z,89.10
2019-03-26T21:26:07.921Z,89.10
2019-03-26T21:28:35.171Z,90.00
2019-03-26T21:31:02.145Z,90.00
2019-03-26T21:33:29.209Z,90.00
2019-03-26T21:35:56.398Z,90.50
2019-03-26T21:38:23.404Z,90.30
2019-03-26T21:40:50.562Z,90.30
2019-03-26T21:43:17.869Z,90.10
2019-03-26T21:45:44.853Z,90.10
2019-03-26T21:48:11.966Z,90.20
2019-03-26T21:50:38.949Z,90.20
2019-03-26T21:53:06.073Z,90.30
2019-03-26T21:55:34.002Z,89.90
2019-03-26T21:58:01.257Z,90.10
2019-03-26T22:00:29.093Z,90.50
2019-03-26T22:02:56.143Z,90.20
2019-03-26T22:05:23.408Z,90.00
2019-03-26T22:07:50.479Z,90.10
2019-03-26T22:10:18.456Z,90.90
2019-03-26T22:12:45.533Z,90.20
2019-03-26T22:15:12.817Z,90.30
2019-03-26T22:17:39.931Z,90.30
2019-03-26T22:20:10.862Z,90.30
2019-03-26T22:22:37.950Z,90.40
2019-03-26T22:25:08.198Z,90.50
2019-03-26T22:27:35.209Z,90.60
2019-03-26T22:30:03.098Z,90.60
2019-03-26T22:32:31.266Z,90.70
2019-03-26T22:34:58.397Z,90.60
2019-03-26T22:37:25.524Z,90.60
2019-03-26T22:39:52.666Z,90.70
2019-03-26T22:42:19.641Z,90.70
2019-03-26T22:44:46.649Z,90.70
2019-03-26T22:47:14.476Z,90.90
2019-03-26T22:49:41.482Z,90.80
2019-03-26T22:52:08.597Z,90.80
2019-03-26T22:54:35.596Z,91.30
2019-03-26T22:57:02.633Z,90.80
2019-03-26T22:59:29.655Z,90.80
2019-03-26T23:01:56.902Z,91.20
2019-03-26T23:04:23.934Z,91.30
2019-03-26T23:06:51.453Z,90.80
2019-03-26T23:09:20.303Z,90.70
2019-03-26T23:11:52.821Z,91.00
2019-03-26T23:14:19.830Z,90.60
2019-03-26T23:16:46.956Z,91.00
2019-03-26T23:19:13.973Z,91.00
2019-03-26T23:21:41.247Z,91.00
2019-03-26T23:24:10.693Z,91.30
2019-03-26T23:26:37.962Z,91.00
2019-03-26T23:29:07.895Z,91.00
2019-03-26T23:31:34.171Z,91.00
2019-03-26T23:34:01.190Z,91.00
2019-03-26T23:36:28.351Z,91.00
2019-03-26T23:38:55.830Z,91.20
2019-03-26T23:41:22.900Z,91.50
2019-03-26T23:43:50.053Z,91.70
2019-03-26T23:46:17.125Z,91.90
2019-03-26T23:48:45.205Z,92.00
2019-03-26T23:51:12.403Z,92.20
2019-03-26T23:53:39.647Z,92.20
2019-03-26T23:56:06.679Z,92.00
2019-03-26T23:58:33.719Z,91.80
